• Join FlightAware (Why Join?)
  • Login
  • US Flag 
08:55AM EDT


 

Airport Tracker/Info


-or-


 

Live Flight TrackerFlight Track Log ✈ ASQ4356 ✈ 03-Jul-2013 ✈ KIAH - KMAF

Flight Track Log - Related Links

Times and Time Zones

All times are in EDT time to prevent confusion due to time zone crossing. See the ASQ4356 flight status page for this flight to view local times or setup timezone preferences in your user account.

Time Position Orientation Groundspeed Altitude Reporting Facility
EDT Latitude Longitude Course Direction KTS MPH feet Rate Location/Type
08:13PM 29.9617 -95.3436 205° Southwest 150 173 800  Level Houston Center
08:14PM 29.9336 -95.3589 205° Southwest 193 222 2,200 1,620 Climbing Houston Center
08:15PM 29.8944 -95.4175 232° Southwest 226 260 3,700 1,980 Climbing Houston Center
08:16PM 29.8750 -95.4975 254° West 259 298 6,300 2,400 Climbing Houston Center
08:17PM 29.8750 -95.5803 270° West 260 299 8,700 2,160 Climbing Houston Center
08:18PM 29.9072 -95.6567 296° West 267 307 10,800 1,740 Climbing Houston Center
08:19PM 29.9489 -95.7606 295° West 296 341 12,400 1,860 Climbing Houston Center
08:20PM 29.9844 -95.8486 295° West 303 349 14,700 1,920 Climbing Houston Center
08:21PM 30.0189 -95.9361 294° West 300 345 16,400 1,200 Climbing Houston Center
08:22PM 30.0592 -96.0356 295° West 313 360 17,200 1,080 Climbing Houston Center
08:23PM 30.0833 -96.1389 285° West 334 384 18,700 1,320 Climbing Houston Center
08:24PM 30.0986 -96.2450 279° West 336 387 20,000 1,200 Climbing Houston Center
08:25PM 30.1153 -96.3522 280° West 342 394 21,300 1,200 Climbing Houston Center
08:26PM 30.1347 -96.4792 280° West 352 405 22,600 1,140 Climbing Houston Center
08:27PM 30.1519 -96.5950 280° West 360 414 23,700 1,020 Climbing Houston Center
08:28PM 30.1686 -96.7136 279° West 368 423 24,800 1,140 Climbing Houston Center
08:29PM 30.1883 -96.8331 281° West 375 432 26,100 1,260 Climbing Houston Center
08:30PM 30.2053 -96.9483 280° West 364 419 27,500 1,500 Climbing Houston Center
08:32PM 30.2211 -97.0614 279° West 353 406 29,200 1,500 Climbing Houston Center
08:33PM 30.2378 -97.1700 280° West 342 394 30,600 1,260 Climbing Houston Center
08:34PM 30.2539 -97.2794 280° West 341 392 31,900 1,500 Climbing Houston Center
08:35PM 30.2692 -97.3869 279° West 336 387 33,800 1,020 Climbing Houston Center
08:36PM 30.2844 -97.4903 280° West 324 373 34,000 60 Climbing Houston Center
08:37PM 30.3031 -97.6256 279° West 354 407 34,000  Level Houston Center
08:38PM 30.3206 -97.7464 280° West 373 429 34,000  Level Houston Center
08:39PM 30.3378 -97.8692 279° West 380 437 34,000  Level Houston Center
08:40PM 30.3783 -97.9867 292° West 387 445 34,000  Level Houston Center
08:41PM 30.4242 -98.1022 295° West 389 448 34,000  Level Houston Center
08:42PM 30.4700 -98.2203 294° West 396 456 34,000  Level Houston Center
08:43PM 30.5164 -98.3392 294° West 399 459 34,000  Level Houston Center
08:44PM 30.5631 -98.4569 295° West 398 458 34,000  Level Houston Center
08:45PM 30.6083 -98.5733 294° West 393 452 34,000  Level Houston Center
08:46PM 30.6533 -98.6894 294° West 390 449 34,000  Level Houston Center
08:47PM 30.6981 -98.8075 294° West 395 455 34,000  Level Houston Center
08:48PM 30.7508 -98.9447 294° West 396 456 34,000  Level Houston Center
08:49PM 30.7956 -99.0622 294° West 394 453 34,000  Level Houston Center
08:50PM 30.8364 -99.1669 294° West 393 452 34,000  Level Houston Center
08:51PM 30.8800 -99.2831 294° West 393 452 34,000  Level Houston Center
08:52PM 30.9319 -99.4228 293° West 393 452 34,000  Level Houston Center
08:53PM 30.9758 -99.5342 295° West 379 436 34,000  Level Houston Center
08:54PM 31.0164 -99.6464 293° West 374 430 34,000  Level Houston Center
08:55PM 31.0622 -99.7669 294° West 400 460 34,000  Level Houston Center
08:56PM 31.1069 -99.8847 294° West 398 458 34,000  Level Houston Center
08:57PM 31.1508 -100.0039 293° West 397 457 34,000  Level Houston Center
08:58PM 31.2028 -100.1419 294° West 383 441 34,000  Level Houston Center
08:59PM 31.2453 -100.2578 293° West 385 443 34,000  Level Houston Center
09:00PM 31.2900 -100.3728 294° West 388 447 34,000  Level Houston Center
09:01PM 31.3319 -100.4900 293° West 390 449 34,000 -660 Level Houston Center
09:02PM 31.3750 -100.6128 292° West 396 456 32,800 -2,460 Descending Fort Worth Center
09:03PM 31.4161 -100.7261 293° West 391 450 29,400 -3,300 Descending Fort Worth Center
09:04PM 31.4608 -100.8447 294° West 391 450 26,200 -2,700 Descending Fort Worth Center
09:05PM 31.5053 -100.9681 293° West 400 460 24,100 -2,160 Descending Fort Worth Center
09:06PM 31.5500 -101.0894 293° West 400 460 21,900 -2,100 Descending Fort Worth Center
09:07PM 31.5922 -101.2106 292° West 400 460 20,000 -1,860 Descending Fort Worth Center
09:08PM 31.6367 -101.3319 293° West 400 460 18,200 -1,740 Descending Fort Worth Center
09:09PM 31.6725 -101.4531 289° West 400 460 16,600 -1,800 Descending Fort Worth Center
09:10PM 31.6828 -101.5803 275° West 394 453 14,600 -2,040 Descending Fort Worth Center
09:11PM 31.6919 -101.6808 276° West 375 432 12,600 -1,800 Descending Fort Worth Center
09:12PM 31.7053 -101.7817 279° West 344 396 11,000 -1,860 Descending Fort Worth Center
09:13PM 31.7206 -101.8775 281° West 319 367 8,900 -1,980 Descending Fort Worth Center
09:14PM 31.7406 -101.9639 285° West 293 337 7,100 -1,500 Descending Fort Worth Center
09:15PM 31.7728 -102.0511 294° West 287 330 6,000 -600 Descending Fort Worth Center
09:16PM 31.8075 -102.1311 297° West 282 325 6,000  Level Fort Worth Center
09:17PM 31.8397 -102.2133 295° West 282 325 6,000 -60 Level Fort Worth Center
09:18PM 31.8706 -102.2836 297° West 264 304 5,900 -120 Descending Fort Worth Center